Список аэропортов
Фактическая погода:

Нет данных
Время (МСК)Темп. СВетерВлажностьДавлениеОблачностьОсадки
09:00+12СВ, 5 м/с87%1019 гПаясно
10:00+15СВ, 6 м/с84%1019 гПаясно
11:00+17СВ, 6 м/с76%1019 гПаясно
12:00+18СВ, 5 м/с72%1018 гПаясно
13:00+18СВ, 5 м/с70%1018 гПаясно
14:00+19СВ, 4 м/с70%1018 гПаясно
15:00+19СВ, 4 м/с70%1017 гПаясно
16:00+18СВ, 4 м/с73%1017 гПаясно
17:00+17С, 4 м/с77%1017 гПаясно
18:00+15СВ, 4 м/с84%1017 гПаясно
19:00+14СВ, 4 м/с90%1017 гПаясно
20:00+13СВ, 4 м/с96%1017 гПас прояснениями
21:00+13СВ, 3 м/с98%1017 гПаоблачно
22:00+12СВ, 2 м/с99%1018 гПаоблачно
23:00+11ЮВ, 1 м/с100%1017 гПаоблачно
19 октября
00:00+12Ю, 2 м/с99%1017 гПаоблачно
01:00+12Ю, 2 м/с99%1017 гПас прояснениями
02:00+12Ю, 2 м/с99%1017 гПас прояснениями
03:00+12Ю, 2 м/с99%1017 гПас прояснениями
04:00+12Ю, 2 м/с99%1017 гПас прояснениями
05:00+13Ю, 2 м/с99%1017 гПаоблачно
06:00+13Ю, 2 м/с99%1017 гПаоблачно
07:00+13Ю, 2 м/с99%1017 гПаоблачно
08:00+13Ю, 2 м/с99%1017 гПаоблачно
09:00+14Ю, 2 м/с98%1017 гПаоблачно
10:00+14ЮЗ, 2 м/с95%1017 гПаоблачно
11:00+15ЮЗ, 2 м/с91%1016 гПас прояснениями
12:00+17ЮЗ, 2 м/с84%1016 гПас прояснениями
13:00+18ЮЗ, 3 м/с79%1016 гПас прояснениями
14:00+18З, 3 м/с78%1016 гПаоблачно
15:00+18З, 2 м/с80%1016 гПаоблачно
16:00+17З, 2 м/с82%1016 гПаоблачно
17:00+16З, 2 м/с85%1016 гПаоблачно
18:00+16З, 1 м/с87%1016 гПаоблачно
19:00+16З, 2 м/с89%1016 гПаоблачно
20:00+15З, 2 м/с90%1016 гПаоблачно
21:00+15ЮЗ, 1 м/с90%1016 гПаоблачно
22:00+15ЮЗ, 1 м/с90%1016 гПаоблачно
23:00+15Ю, 1 м/с90%1016 гПаоблачно
20 октября
00:00+15ЮЗ, 1 м/с91%1016 гПаоблачно
01:00+15З, 1 м/с92%1016 гПаоблачно
02:00+15Штиль 93%1016 гПаоблачно
03:00+15СЗ, 1 м/с92%1016 гПаоблачно
04:00+15Штиль 92%1016 гПаоблачно
05:00+15Штиль 93%1016 гПаоблачно
06:00+15Штиль 93%1016 гПаоблачно
07:00+15С, 1 м/с90%1016 гПаоблачно
08:00+15СВ, 1 м/с89%1016 гПаоблачно
09:00+16С, 2 м/с86%1017 гПаоблачно